createdAt,value
2019-05-05T00:00:10.323Z,10.20
2019-05-05T00:02:41.571Z,10.20
2019-05-05T00:05:15.500Z,9.10
2019-05-05T00:07:45.205Z,9.60
2019-05-05T00:10:16.620Z,10.50
2019-05-05T00:12:47.803Z,10.67
2019-05-05T00:15:19.090Z,9.53
2019-05-05T00:17:48.882Z,9.83
2019-05-05T00:20:18.424Z,9.83
2019-05-05T00:22:47.940Z,10.40
2019-05-05T00:25:17.451Z,9.83
2019-05-05T00:27:47.033Z,9.43
2019-05-05T00:30:17.046Z,9.40
2019-05-05T00:32:46.568Z,10.60
2019-05-05T00:35:16.178Z,9.83
2019-05-05T00:37:45.699Z,10.37
2019-05-05T00:40:15.468Z,9.90
2019-05-05T00:42:45.626Z,10.17
2019-05-05T00:45:15.636Z,9.57
2019-05-05T00:47:46.757Z,9.97
2019-05-05T00:50:17.937Z,9.70
2019-05-05T00:52:47.439Z,10.73
2019-05-05T00:55:17.037Z,11.50
2019-05-05T00:57:46.533Z,11.23
2019-05-05T01:00:20.398Z,10.93
2019-05-05T01:02:51.516Z,11.47
2019-05-05T01:05:22.633Z,12.27
2019-05-05T01:07:52.293Z,11.70
2019-05-05T01:10:21.861Z,11.53
2019-05-05T01:12:51.510Z,11.77
2019-05-05T01:15:20.989Z,11.90
2019-05-05T01:17:51.541Z,11.47
2019-05-05T01:20:21.142Z,11.40
2019-05-05T01:22:50.640Z,11.90
2019-05-05T01:25:20.148Z,12.53
2019-05-05T01:27:49.830Z,10.87
2019-05-05T01:30:24.441Z,10.57
2019-05-05T01:32:56.060Z,9.90
2019-05-05T01:35:25.700Z,10.50
2019-05-05T01:37:56.874Z,10.57
2019-05-05T01:40:28.122Z,10.87
2019-05-05T01:42:57.642Z,12.40
2019-05-05T01:45:27.106Z,12.90
2019-05-05T01:47:56.626Z,12.93
2019-05-05T01:50:26.186Z,13.20
2019-05-05T01:52:55.877Z,13.27
2019-05-05T01:55:25.446Z,13.30
2019-05-05T01:57:55.199Z,12.53
2019-05-05T02:00:25.447Z,13.47
2019-05-05T02:02:55.500Z,12.57
2019-05-05T02:05:24.919Z,12.70
2019-05-05T02:07:55.332Z,13.97
2019-05-05T02:10:25.492Z,12.83
2019-05-05T02:12:55.236Z,13.77
2019-05-05T02:15:25.137Z,13.67
2019-05-05T02:17:55.172Z,14.23
2019-05-05T02:20:30.845Z,15.20
2019-05-05T02:22:59.182Z,14.73
2019-05-05T02:25:28.664Z,15.20
2019-05-05T02:27:58.272Z,14.73
2019-05-05T02:30:29.395Z,15.17
2019-05-05T02:33:00.564Z,15.70
2019-05-05T02:35:31.150Z,13.73
2019-05-05T02:38:00.699Z,14.27
2019-05-05T02:40:30.597Z,14.67
2019-05-05T02:43:00.102Z,13.83
2019-05-05T02:45:35.288Z,15.57
2019-05-05T02:48:06.174Z,15.70
2019-05-05T02:50:51.609Z,16.23
2019-05-05T02:53:09.419Z,16.63
2019-05-05T02:55:39.193Z,16.00
2019-05-05T02:58:08.743Z,16.33
2019-05-05T03:00:39.933Z,15.10
2019-05-05T03:03:09.639Z,15.83
2019-05-05T03:05:39.385Z,17.10
2019-05-05T03:08:09.013Z,17.60
2019-05-05T03:10:38.618Z,17.60
2019-05-05T03:13:08.431Z,17.83
2019-05-05T03:15:41.094Z,19.97
2019-05-05T03:18:10.663Z,19.37
2019-05-05T03:20:40.165Z,20.40
2019-05-05T03:23:09.799Z,20.10
2019-05-05T03:25:39.275Z,18.73
2019-05-05T03:28:09.013Z,20.00
2019-05-05T03:30:38.531Z,20.77
2019-05-05T03:33:08.030Z,19.17
2019-05-05T03:35:37.882Z,20.50
2019-05-05T03:38:07.440Z,20.93
2019-05-05T03:40:38.641Z,21.07
2019-05-05T03:43:10.025Z,20.73
2019-05-05T03:45:41.905Z,19.13
2019-05-05T03:48:13.512Z,19.00
2019-05-05T03:50:44.654Z,21.20
2019-05-05T03:53:14.255Z,20.30
2019-05-05T03:55:44.045Z,18.23
2019-05-05T03:58:14.712Z,19.80
2019-05-05T04:00:47.466Z,26.40
2019-05-05T04:03:17.006Z,19.30
2019-05-05T04:05:48.246Z,18.33
2019-05-05T04:08:17.912Z,18.87
2019-05-05T04:10:47.427Z,20.37
2019-05-05T04:13:17.135Z,20.50
2019-05-05T04:15:48.296Z,21.07
2019-05-05T04:18:19.433Z,19.57
2019-05-05T04:20:48.937Z,16.60
2019-05-05T04:23:18.505Z,17.50
2019-05-05T04:25:48.033Z,18.27
2019-05-05T04:28:17.547Z,17.03
2019-05-05T04:30:48.117Z,16.67
2019-05-05T04:33:17.609Z,18.67
2019-05-05T04:35:47.154Z,21.73
2019-05-05T04:38:16.660Z,20.97
2019-05-05T04:40:46.152Z,22.47
2019-05-05T04:43:15.791Z,22.57
2019-05-05T04:45:45.309Z,22.10
2019-05-05T04:48:16.422Z,21.70
2019-05-05T04:50:47.577Z,21.77
2019-05-05T04:53:18.730Z,21.10
2019-05-05T04:55:48.244Z,19.50
2019-05-05T04:58:17.745Z,19.47
2019-05-05T05:00:47.278Z,19.57
2019-05-05T05:03:18.384Z,19.00
2019-05-05T05:05:49.536Z,21.73
2019-05-05T05:08:19.118Z,22.63
2019-05-05T05:10:48.648Z,21.77
2019-05-05T05:13:18.194Z,21.67
2019-05-05T05:15:47.680Z,20.93
2019-05-05T05:18:17.442Z,20.20
2019-05-05T05:20:46.949Z,21.60
2019-05-05T05:23:16.451Z,20.93
2019-05-05T05:25:45.987Z,21.67
2019-05-05T05:28:15.458Z,21.07
2019-05-05T05:30:44.969Z,21.40
2019-05-05T05:33:15.000Z,20.40
2019-05-05T05:35:44.554Z,22.97
2019-05-05T05:38:14.259Z,24.23
2019-05-05T05:40:45.484Z,20.90
2019-05-05T05:43:16.641Z,22.70
2019-05-05T05:45:47.787Z,19.47
2019-05-05T05:48:19.990Z,20.23
2019-05-05T05:50:51.154Z,21.63
2019-05-05T05:53:21.788Z,20.07
2019-05-05T05:55:51.341Z,21.10
2019-05-05T05:58:20.850Z,19.97
2019-05-05T06:00:50.361Z,19.67
2019-05-05T06:03:19.926Z,19.50
2019-05-05T06:05:49.529Z,23.47
2019-05-05T06:08:19.016Z,23.10
2019-05-05T06:10:48.542Z,25.97
2019-05-05T06:13:18.061Z,24.47
2019-05-05T06:15:47.554Z,25.70
2019-05-05T06:18:17.058Z,25.50
2019-05-05T06:20:46.597Z,26.87
2019-05-05T06:23:16.142Z,27.47
2019-05-05T06:25:45.719Z,28.60
2019-05-05T06:28:15.226Z,26.43
2019-05-05T06:30:44.807Z,26.70
2019-05-05T06:33:14.733Z,26.80
2019-05-05T06:35:44.493Z,26.97
2019-05-05T06:38:13.990Z,27.03
2019-05-05T06:40:45.146Z,27.00
2019-05-05T06:43:16.289Z,26.80
2019-05-05T06:45:47.475Z,26.57
2019-05-05T06:48:16.978Z,27.97
2019-05-05T06:50:46.507Z,26.53
2019-05-05T06:53:16.153Z,24.57
2019-05-05T06:55:45.666Z,25.73
2019-05-05T06:58:15.269Z,26.60
2019-05-05T07:00:44.803Z,26.87
2019-05-05T07:03:14.283Z,25.17
2019-05-05T07:05:44.008Z,24.80
2019-05-05T07:08:13.793Z,25.67
2019-05-05T07:10:44.406Z,26.03
2019-05-05T07:13:14.163Z,25.43
2019-05-05T07:15:43.980Z,25.23
2019-05-05T07:18:14.201Z,23.10
2019-05-05T07:20:44.221Z,21.93
2019-05-05T07:23:14.609Z,21.63
2019-05-05T07:25:46.046Z,20.43
2019-05-05T07:28:15.394Z,21.10
2019-05-05T07:30:44.875Z,21.43
2019-05-05T07:33:14.963Z,23.23
2019-05-05T07:35:56.105Z,21.80
2019-05-05T07:38:17.409Z,24.47
2019-05-05T07:40:46.954Z,19.97
2019-05-05T07:43:16.503Z,22.40
2019-05-05T07:45:46.063Z,24.15
2019-05-05T07:48:15.547Z,19.53
2019-05-05T07:50:58.133Z,20.20
2019-05-05T07:53:17.919Z,21.87
2019-05-05T07:55:47.581Z,17.70
2019-05-05T07:58:17.052Z,19.67
2019-05-05T08:00:46.577Z,24.30
2019-05-05T08:03:16.071Z,17.53
2019-05-05T08:05:45.552Z,17.63
2019-05-05T08:08:15.056Z,16.23
2019-05-05T08:10:44.518Z,14.87
2019-05-05T08:13:14.275Z,16.47
2019-05-05T08:15:56.898Z,14.63
2019-05-05T08:18:18.384Z,15.10
2019-05-05T08:20:49.516Z,14.87
2019-05-05T08:23:31.845Z,13.03
2019-05-05T08:25:54.067Z,13.40
2019-05-05T08:28:25.284Z,13.90
2019-05-05T08:30:56.443Z,12.90
2019-05-05T08:33:25.948Z,10.13
2019-05-05T08:35:55.466Z,10.97
2019-05-05T08:38:25.002Z,11.13
2019-05-05T08:40:54.527Z,12.00
2019-05-05T08:43:24.312Z,10.90
2019-05-05T08:45:55.360Z,11.47
2019-05-05T08:48:24.989Z,10.47
2019-05-05T08:50:54.531Z,9.93
2019-05-05T08:53:24.377Z,12.43
2019-05-05T08:55:54.647Z,12.20
2019-05-05T08:58:24.140Z,9.43
2019-05-05T09:00:53.811Z,8.63
2019-05-05T09:03:24.286Z,9.63
2019-05-05T09:05:54.320Z,7.20
2019-05-05T09:08:24.753Z,7.40
2019-05-05T09:10:55.241Z,7.40
2019-05-05T09:13:24.863Z,7.77
2019-05-05T09:15:54.558Z,7.70
2019-05-05T09:18:24.568Z,8.63
2019-05-05T09:20:54.438Z,8.50
2019-05-05T09:23:24.143Z,8.13
2019-05-05T09:25:55.355Z,11.10
2019-05-05T09:28:26.468Z,9.47
2019-05-05T09:30:56.021Z,8.97
2019-05-05T09:33:25.478Z,8.07
2019-05-05T09:35:54.946Z,8.83
2019-05-05T09:38:24.544Z,8.47
2019-05-05T09:40:54.492Z,8.33
2019-05-05T09:43:24.205Z,8.53
2019-05-05T09:45:54.494Z,8.23
2019-05-05T09:48:24.496Z,7.83
2019-05-05T09:50:54.183Z,10.15
2019-05-05T09:53:27.193Z,8.35
2019-05-05T09:55:55.081Z,9.83
2019-05-05T09:58:24.636Z,6.13
2019-05-05T10:00:54.780Z,5.57
2019-05-05T10:03:24.442Z,5.67
2019-05-05T10:05:54.158Z,6.90
2019-05-05T10:08:23.759Z,6.93
2019-05-05T10:10:54.746Z,6.80
2019-05-05T10:13:24.441Z,6.87
2019-05-05T10:15:54.946Z,6.20
2019-05-05T10:18:25.501Z,6.40
2019-05-05T10:20:55.035Z,6.57
2019-05-05T10:23:27.338Z,6.63
2019-05-05T10:25:58.464Z,6.67
2019-05-05T10:28:27.965Z,6.07
2019-05-05T10:30:57.485Z,6.23
2019-05-05T10:33:27.042Z,5.83
2019-05-05T10:35:56.603Z,5.77
2019-05-05T10:38:26.096Z,6.30
2019-05-05T10:40:55.704Z,6.07
2019-05-05T10:43:25.180Z,6.10
2019-05-05T10:45:54.788Z,5.70
2019-05-05T10:48:24.293Z,6.13
2019-05-05T10:50:53.914Z,6.13
2019-05-05T10:53:23.393Z,5.77
2019-05-05T10:55:53.972Z,4.57
2019-05-05T10:58:24.363Z,4.37
2019-05-05T11:00:55.549Z,4.50
2019-05-05T11:03:25.039Z,3.67
2019-05-05T11:05:57.260Z,4.20
2019-05-05T11:08:30.546Z,3.10
2019-05-05T11:10:58.537Z,2.97
2019-05-05T11:13:28.038Z,3.67
2019-05-05T11:15:57.519Z,3.53
2019-05-05T11:18:27.047Z,4.03
2019-05-05T11:20:56.631Z,3.73
2019-05-05T11:23:26.148Z,3.93
2019-05-05T11:25:55.705Z,3.67
2019-05-05T11:28:25.267Z,4.50
2019-05-05T11:30:54.823Z,4.30
2019-05-05T11:33:24.049Z,4.37
2019-05-05T11:35:55.167Z,4.10
2019-05-05T11:38:24.821Z,4.23
2019-05-05T11:40:54.795Z,4.20
2019-05-05T11:43:24.814Z,4.50
2019-05-05T11:45:54.588Z,4.13
2019-05-05T11:48:24.242Z,4.00
2019-05-05T11:50:54.199Z,4.27
2019-05-05T11:53:25.159Z,4.07
2019-05-05T11:55:55.278Z,3.93
2019-05-05T11:58:25.107Z,4.33
2019-05-05T12:00:54.855Z,3.53
2019-05-05T12:03:24.558Z,3.77
2019-05-05T12:05:54.070Z,3.70
2019-05-05T12:08:23.898Z,4.13
2019-05-05T12:10:55.189Z,3.53
2019-05-05T12:13:24.676Z,3.23
2019-05-05T12:15:55.868Z,3.80
2019-05-05T12:18:25.392Z,3.23
2019-05-05T12:20:54.924Z,3.37
2019-05-05T12:23:24.500Z,3.00
2019-05-05T12:25:57.261Z,2.93
2019-05-05T12:28:32.128Z,3.13
2019-05-05T12:31:03.861Z,3.10
2019-05-05T12:33:33.676Z,3.67
2019-05-05T12:36:04.413Z,3.30
2019-05-05T12:38:34.738Z,3.00
2019-05-05T12:41:04.527Z,3.50
2019-05-05T12:43:34.221Z,3.33
2019-05-05T12:46:05.298Z,3.43
2019-05-05T12:48:34.615Z,3.53
2019-05-05T12:51:04.322Z,2.93
2019-05-05T12:53:33.895Z,3.27
2019-05-05T12:56:04.729Z,2.67
2019-05-05T12:58:35.001Z,3.17
2019-05-05T13:01:04.334Z,3.40
2019-05-05T13:03:34.590Z,3.97
2019-05-05T13:06:04.461Z,3.50
2019-05-05T13:08:34.154Z,4.10
2019-05-05T13:11:04.115Z,3.70
2019-05-05T13:13:34.566Z,3.20
2019-05-05T13:16:04.385Z,3.30
2019-05-05T13:18:34.076Z,3.40
2019-05-05T13:21:05.280Z,3.43
2019-05-05T13:23:36.429Z,3.20
2019-05-05T13:26:07.568Z,3.23
2019-05-05T13:28:37.076Z,3.37
2019-05-05T13:31:06.586Z,3.70
2019-05-05T13:33:37.320Z,3.77
2019-05-05T13:36:06.933Z,3.80
2019-05-05T13:38:36.411Z,4.17
2019-05-05T13:41:07.083Z,4.00
2019-05-05T13:43:37.557Z,3.10
2019-05-05T13:46:08.655Z,3.30
2019-05-05T13:48:38.179Z,2.97
2019-05-05T13:51:09.278Z,3.10
2019-05-05T13:53:38.777Z,3.20
2019-05-05T13:56:12.154Z,3.13
2019-05-05T13:58:39.519Z,3.33
2019-05-05T14:01:10.058Z,3.67
2019-05-05T14:03:39.647Z,3.72
2019-05-05T14:06:09.127Z,3.00
2019-05-05T14:08:38.787Z,3.03
2019-05-05T14:11:08.278Z,3.57
2019-05-05T14:13:37.784Z,3.47
2019-05-05T14:16:07.373Z,3.67
2019-05-05T14:18:36.848Z,3.27
2019-05-05T14:21:06.348Z,3.17
2019-05-05T14:23:37.564Z,3.50
2019-05-05T14:26:07.037Z,2.90
2019-05-05T14:28:36.506Z,3.10
2019-05-05T14:31:07.647Z,3.60
2019-05-05T14:33:38.768Z,3.50
2019-05-05T14:36:09.908Z,3.30
2019-05-05T14:38:41.061Z,3.23
2019-05-05T14:41:10.690Z,2.90
2019-05-05T14:43:40.175Z,3.20
2019-05-05T14:46:09.769Z,3.17
2019-05-05T14:48:39.303Z,3.37
2019-05-05T14:51:08.805Z,3.73
2019-05-05T14:53:38.275Z,3.53
2019-05-05T14:56:07.781Z,3.33
2019-05-05T14:58:37.387Z,3.00
2019-05-05T15:01:06.923Z,3.20
2019-05-05T15:03:36.445Z,3.37
2019-05-05T15:06:08.587Z,3.70
2019-05-05T15:08:39.715Z,2.70
2019-05-05T15:11:08.974Z,3.63
2019-05-05T15:13:38.559Z,2.97
2019-05-05T15:16:10.122Z,3.10
2019-05-05T15:18:39.336Z,3.10
2019-05-05T15:21:08.848Z,3.70
2019-05-05T15:23:38.418Z,3.33
2019-05-05T15:26:08.211Z,4.97
2019-05-05T15:28:37.673Z,5.92
2019-05-05T15:31:07.168Z,5.90
2019-05-05T15:33:36.688Z,5.95
2019-05-05T15:36:07.200Z,5.78
2019-05-05T15:38:36.767Z,4.83
2019-05-05T15:41:06.341Z,4.97
2019-05-05T15:43:35.920Z,5.23
2019-05-05T15:46:05.384Z,8.77
2019-05-05T15:48:36.448Z,6.00
2019-05-05T15:51:06.055Z,6.10
2019-05-05T15:53:35.514Z,5.30
2019-05-05T15:56:06.082Z,4.67
2019-05-05T15:58:35.646Z,5.53
2019-05-05T16:01:05.152Z,5.27
2019-05-05T16:03:34.730Z,6.43
2019-05-05T16:06:04.276Z,5.13
2019-05-05T16:08:34.057Z,5.90
2019-05-05T16:11:03.965Z,5.57
2019-05-05T16:13:35.317Z,5.20
2019-05-05T16:16:06.695Z,4.53
2019-05-05T16:18:37.911Z,5.77
2019-05-05T16:21:09.064Z,5.67
2019-05-05T16:23:40.218Z,4.83
2019-05-05T16:26:09.866Z,5.60
2019-05-05T16:28:39.325Z,4.73
2019-05-05T16:31:08.874Z,5.07
2019-05-05T16:33:38.441Z,5.03
2019-05-05T16:36:07.924Z,4.70
2019-05-05T16:38:37.512Z,5.40
2019-05-05T16:41:07.040Z,5.27
2019-05-05T16:43:36.534Z,5.03
2019-05-05T16:46:06.112Z,4.60
2019-05-05T16:48:35.752Z,4.63
2019-05-05T16:51:06.858Z,4.93
2019-05-05T16:53:37.457Z,4.47
2019-05-05T16:56:10.653Z,4.90
2019-05-05T16:58:40.122Z,4.67
2019-05-05T17:01:11.270Z,4.87
2019-05-05T17:03:45.421Z,5.30
2019-05-05T17:06:13.996Z,4.93
2019-05-05T17:08:44.422Z,5.50
2019-05-05T17:11:15.095Z,5.27
2019-05-05T17:13:46.526Z,5.50
2019-05-05T17:16:15.759Z,4.90
2019-05-05T17:18:46.871Z,5.53
2019-05-05T17:21:18.010Z,4.90
2019-05-05T17:23:47.534Z,4.70
2019-05-05T17:26:17.023Z,6.17
2019-05-05T17:28:46.494Z,5.40
2019-05-05T17:31:15.947Z,5.93
2019-05-05T17:33:45.451Z,6.13
2019-05-05T17:36:15.091Z,6.70
2019-05-05T17:38:44.719Z,6.67
2019-05-05T17:41:15.848Z,6.47
2019-05-05T17:43:46.954Z,6.90
2019-05-05T17:46:18.107Z,7.10
2019-05-05T17:48:49.239Z,7.07
2019-05-05T17:51:20.378Z,7.27
2019-05-05T17:53:51.506Z,7.40
2019-05-05T17:56:21.034Z,7.93
2019-05-05T17:58:50.566Z,8.10
2019-05-05T18:01:20.045Z,9.17
2019-05-05T18:03:49.628Z,7.53
2019-05-05T18:06:20.826Z,7.37
2019-05-05T18:08:53.801Z,10.03
2019-05-05T18:11:25.373Z,8.87
2019-05-05T18:13:56.711Z,8.67
2019-05-05T18:16:27.548Z,10.83
2019-05-05T18:18:57.057Z,9.63
2019-05-05T18:21:29.463Z,9.27
2019-05-05T18:23:58.091Z,8.97
2019-05-05T18:26:27.566Z,9.43
2019-05-05T18:28:57.183Z,9.10
2019-05-05T18:31:26.661Z,9.23
2019-05-05T18:33:56.204Z,9.17
2019-05-05T18:36:25.734Z,9.43
2019-05-05T18:38:55.297Z,9.90
2019-05-05T18:41:26.430Z,9.37
2019-05-05T18:43:57.560Z,10.87
2019-05-05T18:46:27.155Z,10.83
2019-05-05T18:48:57.740Z,10.70
2019-05-05T18:51:27.265Z,11.30
2019-05-05T18:53:56.806Z,11.20
2019-05-05T18:56:26.284Z,10.47
2019-05-05T18:58:55.877Z,10.67
2019-05-05T19:01:27.001Z,11.97
2019-05-05T19:03:58.131Z,11.90
2019-05-05T19:06:27.384Z,12.27
2019-05-05T19:08:58.521Z,12.40
2019-05-05T19:11:28.030Z,12.27
2019-05-05T19:13:57.641Z,12.90
2019-05-05T19:16:27.218Z,11.60
2019-05-05T19:18:56.705Z,11.73
2019-05-05T19:21:26.057Z,11.60
2019-05-05T19:23:55.594Z,11.33
2019-05-05T19:26:25.150Z,10.13
2019-05-05T19:28:54.892Z,10.63
2019-05-05T19:31:24.491Z,10.53
2019-05-05T19:33:55.839Z,10.40
2019-05-05T19:36:27.468Z,10.87
2019-05-05T19:38:57.311Z,10.80
2019-05-05T19:41:26.903Z,9.50
2019-05-05T19:43:56.501Z,9.73
2019-05-05T19:46:27.806Z,9.00
2019-05-05T19:48:58.930Z,9.03
2019-05-05T19:51:28.429Z,9.37
2019-05-05T19:53:57.956Z,8.53
2019-05-05T19:56:27.432Z,8.50
2019-05-05T19:59:01.448Z,8.53
2019-05-05T20:01:35.306Z,8.53
2019-05-05T20:03:59.403Z,8.20
2019-05-05T20:06:28.942Z,8.27
2019-05-05T20:08:58.402Z,7.53
2019-05-05T20:11:27.922Z,7.97
2019-05-05T20:14:07.052Z,8.37
2019-05-05T20:16:30.336Z,8.80
2019-05-05T20:18:59.936Z,9.47
2019-05-05T20:21:29.454Z,10.57
2019-05-05T20:23:59.032Z,10.97
2019-05-05T20:26:28.602Z,11.67
2019-05-05T20:29:10.528Z,11.63
2019-05-05T20:31:29.369Z,11.90
2019-05-05T20:34:00.502Z,11.90
2019-05-05T20:36:31.671Z,11.37
2019-05-05T20:39:01.153Z,12.00
2019-05-05T20:41:30.738Z,11.83
2019-05-05T20:44:00.409Z,12.80
2019-05-05T20:46:29.912Z,11.93
2019-05-05T20:48:59.445Z,12.17
2019-05-05T20:51:28.963Z,11.97
2019-05-05T20:53:58.455Z,12.60
2019-05-05T20:56:27.979Z,12.70
2019-05-05T20:58:57.477Z,11.73
2019-05-05T21:01:26.961Z,12.43
2019-05-05T21:03:56.481Z,12.00
2019-05-05T21:06:25.951Z,13.23
2019-05-05T21:08:55.506Z,13.00
2019-05-05T21:11:25.077Z,13.13
2019-05-05T21:13:54.600Z,12.03
2019-05-05T21:16:24.206Z,12.47
2019-05-05T21:18:54.064Z,13.20
2019-05-05T21:21:25.296Z,15.37
2019-05-05T21:23:56.449Z,15.13
2019-05-05T21:26:27.603Z,14.33
2019-05-05T21:28:57.184Z,13.93
2019-05-05T21:31:26.683Z,13.60
2019-05-05T21:33:56.194Z,13.03
2019-05-05T21:36:25.679Z,13.57
2019-05-05T21:38:55.211Z,14.10
2019-05-05T21:41:24.779Z,14.13
2019-05-05T21:43:54.350Z,13.60
2019-05-05T21:46:24.126Z,14.53
2019-05-05T21:48:54.465Z,13.57
2019-05-05T21:51:25.659Z,13.60
2019-05-05T21:53:54.930Z,13.67
2019-05-05T21:56:26.074Z,13.23
2019-05-05T21:58:56.887Z,11.80
2019-05-05T22:01:27.844Z,12.00
2019-05-05T22:03:57.721Z,11.93
2019-05-05T22:06:27.219Z,11.93
2019-05-05T22:08:56.875Z,12.30
2019-05-05T22:11:26.518Z,11.70
2019-05-05T22:13:56.034Z,11.73
2019-05-05T22:16:25.613Z,11.30
2019-05-05T22:18:55.592Z,10.90
2019-05-05T22:21:26.800Z,11.30
2019-05-05T22:23:57.916Z,12.47
2019-05-05T22:26:27.499Z,10.87
2019-05-05T22:28:57.149Z,10.97
2019-05-05T22:31:26.622Z,11.67
2019-05-05T22:33:56.134Z,11.73
2019-05-05T22:36:25.725Z,11.90
2019-05-05T22:38:55.280Z,11.57
2019-05-05T22:41:24.795Z,11.27
2019-05-05T22:43:54.381Z,11.13
2019-05-05T22:46:23.934Z,11.53
2019-05-05T22:48:54.543Z,12.43
2019-05-05T22:51:24.288Z,14.17
2019-05-05T22:53:54.747Z,15.07
2019-05-05T22:56:24.392Z,16.07
2019-05-05T22:58:54.713Z,15.20
2019-05-05T23:01:24.367Z,14.87
2019-05-05T23:03:55.537Z,14.43
2019-05-05T23:06:26.665Z,12.30
2019-05-05T23:08:56.169Z,11.67
2019-05-05T23:11:25.673Z,10.60
2019-05-05T23:13:56.802Z,10.63
2019-05-05T23:16:27.943Z,10.20
2019-05-05T23:18:58.636Z,11.50
2019-05-05T23:21:29.785Z,10.50
2019-05-05T23:24:00.978Z,11.43
2019-05-05T23:26:35.654Z,10.23
2019-05-05T23:29:03.369Z,10.00
2019-05-05T23:31:33.537Z,10.07
2019-05-05T23:34:03.963Z,10.80
2019-05-05T23:36:33.957Z,9.43
2019-05-05T23:39:05.990Z,8.80
2019-05-05T23:41:36.390Z,9.00
2019-05-05T23:44:05.976Z,9.33
2019-05-05T23:46:35.446Z,9.27
2019-05-05T23:49:05.253Z,9.70
2019-05-05T23:51:34.950Z,10.27
2019-05-05T23:54:04.537Z,10.47
2019-05-05T23:56:34.967Z,9.87
2019-05-05T23:59:04.713Z,10.47
